sensor_id;sensor_type;location;lat;lon;timestamp;temperature;humidity
51021;DHT22;38907;45.562;8.856;2022-07-29T00:04:55;23.30;99.90
51021;DHT22;38907;45.562;8.856;2022-07-29T00:09:57;23.40;99.90
51021;DHT22;38907;45.562;8.856;2022-07-29T00:15:01;23.40;99.90
51021;DHT22;38907;45.562;8.856;2022-07-29T00:20:04;23.40;99.90
51021;DHT22;38907;45.562;8.856;2022-07-29T00:25:07;23.40;99.90
51021;DHT22;38907;45.562;8.856;2022-07-29T00:30:12;23.30;99.90
51021;DHT22;38907;45.562;8.856;2022-07-29T00:35:14;23.30;99.90
51021;DHT22;38907;45.562;8.856;2022-07-29T00:40:34;23.40;99.90
51021;DHT22;38907;45.562;8.856;2022-07-29T00:45:38;23.40;99.90
51021;DHT22;38907;45.562;8.856;2022-07-29T00:50:41;23.30;99.90
51021;DHT22;38907;45.562;8.856;2022-07-29T00:55:43;23.30;99.90
51021;DHT22;38907;45.562;8.856;2022-07-29T01:00:47;23.40;99.90
51021;DHT22;38907;45.562;8.856;2022-07-29T01:05:50;23.50;99.90
51021;DHT22;38907;45.562;8.856;2022-07-29T01:10:53;23.40;99.90
51021;DHT22;38907;45.562;8.856;2022-07-29T01:16:01;23.30;99.90
51021;DHT22;38907;45.562;8.856;2022-07-29T01:21:31;23.10;99.90
51021;DHT22;38907;45.562;8.856;2022-07-29T01:26:45;23.20;99.90
51021;DHT22;38907;45.562;8.856;2022-07-29T01:31:54;23.30;99.90
51021;DHT22;38907;45.562;8.856;2022-07-29T01:37:03;23.30;99.90
51021;DHT22;38907;45.562;8.856;2022-07-29T01:42:12;23.30;99.90
51021;DHT22;38907;45.562;8.856;2022-07-29T01:47:20;23.10;99.90
51021;DHT22;38907;45.562;8.856;2022-07-29T01:52:28;23.10;99.90
51021;DHT22;38907;45.562;8.856;2022-07-29T01:57:35;23.00;99.90
51021;DHT22;38907;45.562;8.856;2022-07-29T02:02:43;23.10;99.90
51021;DHT22;38907;45.562;8.856;2022-07-29T02:07:47;23.40;99.90
51021;DHT22;38907;45.562;8.856;2022-07-29T02:12:50;23.40;99.90
51021;DHT22;38907;45.562;8.856;2022-07-29T02:18:00;23.50;99.90
51021;DHT22;38907;45.562;8.856;2022-07-29T02:23:03;23.30;99.90
51021;DHT22;38907;45.562;8.856;2022-07-29T02:28:07;23.20;99.90
51021;DHT22;38907;45.562;8.856;2022-07-29T02:33:14;23.30;99.90
51021;DHT22;38907;45.562;8.856;2022-07-29T02:38:17;23.20;99.90
51021;DHT22;38907;45.562;8.856;2022-07-29T02:43:39;23.30;99.90
51021;DHT22;38907;45.562;8.856;2022-07-29T02:48:48;23.30;99.90
51021;DHT22;38907;45.562;8.856;2022-07-29T02:53:56;23.40;99.90
51021;DHT22;38907;45.562;8.856;2022-07-29T02:59:03;23.50;99.90
51021;DHT22;38907;45.562;8.856;2022-07-29T03:04:08;23.50;99.90
51021;DHT22;38907;45.562;8.856;2022-07-29T03:09:12;23.60;99.90
51021;DHT22;38907;45.562;8.856;2022-07-29T03:14:16;23.50;99.90
51021;DHT22;38907;45.562;8.856;2022-07-29T03:19:21;23.30;99.90
51021;DHT22;38907;45.562;8.856;2022-07-29T03:24:29;23.20;99.90
51021;DHT22;38907;45.562;8.856;2022-07-29T03:29:32;23.20;99.90
51021;DHT22;38907;45.562;8.856;2022-07-29T03:34:37;23.10;99.90
51021;DHT22;38907;45.562;8.856;2022-07-29T03:39:41;23.10;99.90
51021;DHT22;38907;45.562;8.856;2022-07-29T03:49:49;22.80;99.90
51021;DHT22;38907;45.562;8.856;2022-07-29T03:54:53;22.80;99.90
51021;DHT22;38907;45.562;8.856;2022-07-29T03:59:56;22.90;99.90
51021;DHT22;38907;45.562;8.856;2022-07-29T04:05:00;22.90;99.90
51021;DHT22;38907;45.562;8.856;2022-07-29T04:10:03;22.90;99.90
51021;DHT22;38907;45.562;8.856;2022-07-29T04:15:07;22.80;99.90
51021;DHT22;38907;45.562;8.856;2022-07-29T04:20:11;22.70;99.90
51021;DHT22;38907;45.562;8.856;2022-07-29T04:25:14;22.60;99.90
51021;DHT22;38907;45.562;8.856;2022-07-29T04:30:18;22.60;99.90
51021;DHT22;38907;45.562;8.856;2022-07-29T04:35:21;22.60;99.90
51021;DHT22;38907;45.562;8.856;2022-07-29T04:40:24;22.50;99.90
51021;DHT22;38907;45.562;8.856;2022-07-29T04:45:27;22.60;99.90
51021;DHT22;38907;45.562;8.856;2022-07-29T04:50:31;22.60;99.90
51021;DHT22;38907;45.562;8.856;2022-07-29T04:55:34;22.60;99.90
51021;DHT22;38907;45.562;8.856;2022-07-29T05:00:37;22.60;99.90
51021;DHT22;38907;45.562;8.856;2022-07-29T05:05:41;22.80;99.90
51021;DHT22;38907;45.562;8.856;2022-07-29T05:10:43;22.90;99.90
51021;DHT22;38907;45.562;8.856;2022-07-29T05:15:45;22.90;99.90
51021;DHT22;38907;45.562;8.856;2022-07-29T05:20:49;23.10;99.90
51021;DHT22;38907;45.562;8.856;2022-07-29T05:25:52;23.20;99.90
51021;DHT22;38907;45.562;8.856;2022-07-29T05:30:54;23.30;99.90
51021;DHT22;38907;45.562;8.856;2022-07-29T05:35:58;23.30;99.90
51021;DHT22;38907;45.562;8.856;2022-07-29T05:41:01;23.40;99.90
51021;DHT22;38907;45.562;8.856;2022-07-29T05:46:04;23.50;99.90
51021;DHT22;38907;45.562;8.856;2022-07-29T05:51:08;23.50;99.90
51021;DHT22;38907;45.562;8.856;2022-07-29T05:56:11;23.50;99.90
51021;DHT22;38907;45.562;8.856;2022-07-29T06:01:13;23.60;99.90
51021;DHT22;38907;45.562;8.856;2022-07-29T06:06:18;23.70;99.90
51021;DHT22;38907;45.562;8.856;2022-07-29T06:11:21;23.80;99.90
51021;DHT22;38907;45.562;8.856;2022-07-29T06:16:23;23.80;99.90
51021;DHT22;38907;45.562;8.856;2022-07-29T06:21:27;23.80;99.90
51021;DHT22;38907;45.562;8.856;2022-07-29T06:26:30;23.90;99.90
51021;DHT22;38907;45.562;8.856;2022-07-29T06:31:33;24.00;99.90
51021;DHT22;38907;45.562;8.856;2022-07-29T06:36:37;24.00;99.90
51021;DHT22;38907;45.562;8.856;2022-07-29T06:41:40;24.20;99.90
51021;DHT22;38907;45.562;8.856;2022-07-29T06:46:43;24.20;99.90
51021;DHT22;38907;45.562;8.856;2022-07-29T06:51:47;24.30;99.90
51021;DHT22;38907;45.562;8.856;2022-07-29T06:56:49;24.20;99.90
51021;DHT22;38907;45.562;8.856;2022-07-29T07:01:52;24.20;99.90
51021;DHT22;38907;45.562;8.856;2022-07-29T07:06:56;24.20;99.90
51021;DHT22;38907;45.562;8.856;2022-07-29T07:12:00;24.60;99.90
51021;DHT22;38907;45.562;8.856;2022-07-29T07:17:02;24.70;99.90
51021;DHT22;38907;45.562;8.856;2022-07-29T07:22:07;24.60;99.90
51021;DHT22;38907;45.562;8.856;2022-07-29T07:27:09;24.80;99.90
51021;DHT22;38907;45.562;8.856;2022-07-29T07:32:12;25.20;99.90
51021;DHT22;38907;45.562;8.856;2022-07-29T07:37:18;25.20;99.90
51021;DHT22;38907;45.562;8.856;2022-07-29T07:42:22;25.00;99.90
51021;DHT22;38907;45.562;8.856;2022-07-29T07:47:25;25.20;99.90
51021;DHT22;38907;45.562;8.856;2022-07-29T07:52:29;25.20;99.90
51021;DHT22;38907;45.562;8.856;2022-07-29T07:57:32;25.50;99.90
51021;DHT22;38907;45.562;8.856;2022-07-29T08:02:34;25.90;99.90
51021;DHT22;38907;45.562;8.856;2022-07-29T08:07:38;25.80;99.90
51021;DHT22;38907;45.562;8.856;2022-07-29T08:12:41;25.90;99.90
51021;DHT22;38907;45.562;8.856;2022-07-29T08:17:47;26.10;99.90
51021;DHT22;38907;45.562;8.856;2022-07-29T08:22:51;26.30;99.80
51021;DHT22;38907;45.562;8.856;2022-07-29T08:27:54;26.50;99.90
51021;DHT22;38907;45.562;8.856;2022-07-29T08:32:58;26.70;98.70
51021;DHT22;38907;45.562;8.856;2022-07-29T08:38:02;26.60;96.80
51021;DHT22;38907;45.562;8.856;2022-07-29T08:43:06;26.60;98.10
51021;DHT22;38907;45.562;8.856;2022-07-29T08:48:09;26.70;98.30
51021;DHT22;38907;45.562;8.856;2022-07-29T08:53:14;26.60;98.20
51021;DHT22;38907;45.562;8.856;2022-07-29T08:58:17;26.70;97.70
51021;DHT22;38907;45.562;8.856;2022-07-29T09:03:23;26.60;96.80
51021;DHT22;38907;45.562;8.856;2022-07-29T09:08:29;26.60;96.30
51021;DHT22;38907;45.562;8.856;2022-07-29T09:13:34;26.70;97.00
51021;DHT22;38907;45.562;8.856;2022-07-29T09:18:39;27.10;97.80
51021;DHT22;38907;45.562;8.856;2022-07-29T09:24:00;27.20;97.70
51021;DHT22;38907;45.562;8.856;2022-07-29T09:29:09;27.10;97.70
51021;DHT22;38907;45.562;8.856;2022-07-29T09:34:15;27.30;97.50
51021;DHT22;38907;45.562;8.856;2022-07-29T09:39:28;27.10;96.70
51021;DHT22;38907;45.562;8.856;2022-07-29T09:44:42;27.10;96.90
51021;DHT22;38907;45.562;8.856;2022-07-29T09:49:53;27.10;97.20
51021;DHT22;38907;45.562;8.856;2022-07-29T09:55:15;27.20;96.70
51021;DHT22;38907;45.562;8.856;2022-07-29T10:00:19;27.30;96.60
51021;DHT22;38907;45.562;8.856;2022-07-29T10:05:25;27.50;96.60
51021;DHT22;38907;45.562;8.856;2022-07-29T10:10:32;27.60;95.40
51021;DHT22;38907;45.562;8.856;2022-07-29T10:15:36;27.50;95.20
51021;DHT22;38907;45.562;8.856;2022-07-29T10:20:41;27.60;95.10
51021;DHT22;38907;45.562;8.856;2022-07-29T10:25:47;27.70;95.80
51021;DHT22;38907;45.562;8.856;2022-07-29T10:30:50;27.80;96.70
51021;DHT22;38907;45.562;8.856;2022-07-29T10:36:05;27.90;95.80
51021;DHT22;38907;45.562;8.856;2022-07-29T10:41:31;28.00;96.20
51021;DHT22;38907;45.562;8.856;2022-07-29T10:46:37;28.10;96.00
51021;DHT22;38907;45.562;8.856;2022-07-29T10:51:54;28.10;95.80
51021;DHT22;38907;45.562;8.856;2022-07-29T10:57:11;28.30;96.10
51021;DHT22;38907;45.562;8.856;2022-07-29T11:02:42;28.50;95.80
51021;DHT22;38907;45.562;8.856;2022-07-29T11:08:17;28.30;95.00
51021;DHT22;38907;45.562;8.856;2022-07-29T11:13:49;28.60;95.50
51021;DHT22;38907;45.562;8.856;2022-07-29T11:19:20;28.30;94.80
51021;DHT22;38907;45.562;8.856;2022-07-29T11:24:25;28.50;95.30
51021;DHT22;38907;45.562;8.856;2022-07-29T11:29:31;28.70;95.00
51021;DHT22;38907;45.562;8.856;2022-07-29T11:34:34;29.00;94.70
51021;DHT22;38907;45.562;8.856;2022-07-29T11:39:42;29.30;94.90
51021;DHT22;38907;45.562;8.856;2022-07-29T11:49:48;29.00;94.10
51021;DHT22;38907;45.562;8.856;2022-07-29T11:54:52;29.00;94.40
51021;DHT22;38907;45.562;8.856;2022-07-29T11:59:58;28.90;93.80
51021;DHT22;38907;45.562;8.856;2022-07-29T12:05:02;29.10;94.30
51021;DHT22;38907;45.562;8.856;2022-07-29T12:10:07;29.00;94.00
51021;DHT22;38907;45.562;8.856;2022-07-29T12:15:14;29.00;94.10
51021;DHT22;38907;45.562;8.856;2022-07-29T12:20:27;28.90;94.20
51021;DHT22;38907;45.562;8.856;2022-07-29T12:25:34;28.90;94.40
51021;DHT22;38907;45.562;8.856;2022-07-29T12:30:40;28.90;94.60
51021;DHT22;38907;45.562;8.856;2022-07-29T12:35:47;28.90;95.30
51021;DHT22;38907;45.562;8.856;2022-07-29T12:40:52;28.80;95.00
51021;DHT22;38907;45.562;8.856;2022-07-29T12:45:56;29.00;95.30
51021;DHT22;38907;45.562;8.856;2022-07-29T12:51:02;29.20;95.20
51021;DHT22;38907;45.562;8.856;2022-07-29T12:56:06;29.40;94.90
51021;DHT22;38907;45.562;8.856;2022-07-29T13:01:10;29.60;95.20
51021;DHT22;38907;45.562;8.856;2022-07-29T13:06:37;29.40;94.90
51021;DHT22;38907;45.562;8.856;2022-07-29T13:11:42;29.40;95.40
51021;DHT22;38907;45.562;8.856;2022-07-29T13:17:03;29.50;95.00
51021;DHT22;38907;45.562;8.856;2022-07-29T13:22:08;29.60;94.60
51021;DHT22;38907;45.562;8.856;2022-07-29T13:27:11;29.80;94.70
51021;DHT22;38907;45.562;8.856;2022-07-29T13:32:13;29.80;94.50
51021;DHT22;38907;45.562;8.856;2022-07-29T13:37:18;29.70;94.80
51021;DHT22;38907;45.562;8.856;2022-07-29T13:42:21;29.70;94.60
51021;DHT22;38907;45.562;8.856;2022-07-29T13:47:24;29.60;94.90
51021;DHT22;38907;45.562;8.856;2022-07-29T13:52:28;29.60;95.50
51021;DHT22;38907;45.562;8.856;2022-07-29T13:57:32;29.50;95.90
51021;DHT22;38907;45.562;8.856;2022-07-29T14:02:34;29.30;97.10
51021;DHT22;38907;45.562;8.856;2022-07-29T14:07:40;29.00;97.40
51021;DHT22;38907;45.562;8.856;2022-07-29T14:12:42;28.90;97.70
51021;DHT22;38907;45.562;8.856;2022-07-29T14:17:45;28.90;97.80
51021;DHT22;38907;45.562;8.856;2022-07-29T14:22:49;29.00;97.50
51021;DHT22;38907;45.562;8.856;2022-07-29T14:27:51;29.00;97.70
51021;DHT22;38907;45.562;8.856;2022-07-29T14:32:55;28.90;97.60
51021;DHT22;38907;45.562;8.856;2022-07-29T14:37:59;28.70;96.50
51021;DHT22;38907;45.562;8.856;2022-07-29T14:43:01;28.60;96.30
51021;DHT22;38907;45.562;8.856;2022-07-29T14:48:04;28.00;96.10
51021;DHT22;38907;45.562;8.856;2022-07-29T14:53:08;27.70;96.40
51021;DHT22;38907;45.562;8.856;2022-07-29T14:58:12;27.30;96.70
51021;DHT22;38907;45.562;8.856;2022-07-29T15:03:15;27.00;97.30
51021;DHT22;38907;45.562;8.856;2022-07-29T15:08:19;26.90;98.00
51021;DHT22;38907;45.562;8.856;2022-07-29T15:13:21;26.80;98.10
51021;DHT22;38907;45.562;8.856;2022-07-29T15:18:24;26.80;98.40
51021;DHT22;38907;45.562;8.856;2022-07-29T15:23:28;26.70;98.70
51021;DHT22;38907;45.562;8.856;2022-07-29T15:28:31;26.60;98.90
51021;DHT22;38907;45.562;8.856;2022-07-29T15:33:33;26.50;99.40
51021;DHT22;38907;45.562;8.856;2022-07-29T15:38:37;26.60;99.70
51021;DHT22;38907;45.562;8.856;2022-07-29T15:43:43;26.50;99.90
51021;DHT22;38907;45.562;8.856;2022-07-29T15:48:47;26.30;99.90
51021;DHT22;38907;45.562;8.856;2022-07-29T15:53:52;26.30;99.90
51021;DHT22;38907;45.562;8.856;2022-07-29T15:58:54;26.20;99.90
51021;DHT22;38907;45.562;8.856;2022-07-29T16:03:57;26.10;99.90
51021;DHT22;38907;45.562;8.856;2022-07-29T16:09:01;26.10;99.90
51021;DHT22;38907;45.562;8.856;2022-07-29T16:14:04;26.10;99.90
51021;DHT22;38907;45.562;8.856;2022-07-29T16:19:07;26.20;99.90
51021;DHT22;38907;45.562;8.856;2022-07-29T16:24:12;25.00;99.90
51021;DHT22;38907;45.562;8.856;2022-07-29T16:29:14;23.60;99.90
51021;DHT22;38907;45.562;8.856;2022-07-29T16:34:19;23.10;99.90
51021;DHT22;38907;45.562;8.856;2022-07-29T16:39:23;22.90;99.90
51021;DHT22;38907;45.562;8.856;2022-07-29T16:44:26;23.10;99.90
51021;DHT22;38907;45.562;8.856;2022-07-29T16:49:29;23.40;99.90
51021;DHT22;38907;45.562;8.856;2022-07-29T16:54:34;23.40;99.90
51021;DHT22;38907;45.562;8.856;2022-07-29T16:59:36;23.50;99.90
51021;DHT22;38907;45.562;8.856;2022-07-29T17:04:39;23.30;99.90
51021;DHT22;38907;45.562;8.856;2022-07-29T17:09:43;23.20;99.90
51021;DHT22;38907;45.562;8.856;2022-07-29T17:14:46;23.30;99.90
51021;DHT22;38907;45.562;8.856;2022-07-29T17:19:49;23.30;99.90
51021;DHT22;38907;45.562;8.856;2022-07-29T17:24:53;23.40;99.90
51021;DHT22;38907;45.562;8.856;2022-07-29T17:29:55;23.50;99.90
51021;DHT22;38907;45.562;8.856;2022-07-29T17:34:58;23.30;99.90
51021;DHT22;38907;45.562;8.856;2022-07-29T17:40:02;23.20;99.90
51021;DHT22;38907;45.562;8.856;2022-07-29T17:45:06;23.30;99.90
51021;DHT22;38907;45.562;8.856;2022-07-29T17:50:10;23.30;99.90
51021;DHT22;38907;45.562;8.856;2022-07-29T17:55:15;23.40;99.90
51021;DHT22;38907;45.562;8.856;2022-07-29T18:00:18;23.50;99.90
51021;DHT22;38907;45.562;8.856;2022-07-29T18:05:21;23.70;99.90
51021;DHT22;38907;45.562;8.856;2022-07-29T18:10:29;23.50;99.90
51021;DHT22;38907;45.562;8.856;2022-07-29T18:15:31;23.50;99.90
51021;DHT22;38907;45.562;8.856;2022-07-29T18:20:34;23.70;99.90
51021;DHT22;38907;45.562;8.856;2022-07-29T18:25:38;23.90;99.90
51021;DHT22;38907;45.562;8.856;2022-07-29T18:30:41;23.60;99.90
51021;DHT22;38907;45.562;8.856;2022-07-29T18:35:45;23.60;99.90
51021;DHT22;38907;45.562;8.856;2022-07-29T18:40:50;23.60;99.90
51021;DHT22;38907;45.562;8.856;2022-07-29T18:45:53;23.60;99.90
51021;DHT22;38907;45.562;8.856;2022-07-29T18:50:55;23.60;99.90
51021;DHT22;38907;45.562;8.856;2022-07-29T18:55:59;23.50;99.90
51021;DHT22;38907;45.562;8.856;2022-07-29T19:01:03;23.40;99.90
51021;DHT22;38907;45.562;8.856;2022-07-29T19:06:06;23.30;99.90
51021;DHT22;38907;45.562;8.856;2022-07-29T19:11:09;23.00;99.90
51021;DHT22;38907;45.562;8.856;2022-07-29T19:16:13;22.70;99.90
51021;DHT22;38907;45.562;8.856;2022-07-29T19:21:15;22.80;99.90
51021;DHT22;38907;45.562;8.856;2022-07-29T19:26:20;22.80;99.90
51021;DHT22;38907;45.562;8.856;2022-07-29T19:31:23;22.90;99.90
51021;DHT22;38907;45.562;8.856;2022-07-29T19:36:26;22.90;99.90
51021;DHT22;38907;45.562;8.856;2022-07-29T19:41:31;22.80;99.90
51021;DHT22;38907;45.562;8.856;2022-07-29T19:46:34;22.80;99.90
51021;DHT22;38907;45.562;8.856;2022-07-29T19:51:38;23.00;99.90
51021;DHT22;38907;45.562;8.856;2022-07-29T19:56:43;23.00;99.90
51021;DHT22;38907;45.562;8.856;2022-07-29T20:01:45;22.90;99.90
51021;DHT22;38907;45.562;8.856;2022-07-29T20:06:48;22.90;99.90
51021;DHT22;38907;45.562;8.856;2022-07-29T20:11:55;22.90;99.90
51021;DHT22;38907;45.562;8.856;2022-07-29T20:16:58;23.00;99.90
51021;DHT22;38907;45.562;8.856;2022-07-29T20:22:01;22.90;99.90
51021;DHT22;38907;45.562;8.856;2022-07-29T20:27:08;23.00;99.90
51021;DHT22;38907;45.562;8.856;2022-07-29T20:32:11;23.10;99.90
51021;DHT22;38907;45.562;8.856;2022-07-29T20:37:13;23.10;99.90
51021;DHT22;38907;45.562;8.856;2022-07-29T20:42:18;23.00;99.90
51021;DHT22;38907;45.562;8.856;2022-07-29T20:47:21;22.90;99.90
51021;DHT22;38907;45.562;8.856;2022-07-29T20:52:24;22.90;99.90
51021;DHT22;38907;45.562;8.856;2022-07-29T20:57:31;22.90;99.90
51021;DHT22;38907;45.562;8.856;2022-07-29T21:02:34;22.80;99.90
51021;DHT22;38907;45.562;8.856;2022-07-29T21:07:36;22.70;99.90
51021;DHT22;38907;45.562;8.856;2022-07-29T21:12:40;22.70;99.90
51021;DHT22;38907;45.562;8.856;2022-07-29T21:17:43;22.60;99.90
51021;DHT22;38907;45.562;8.856;2022-07-29T21:22:47;22.50;99.90
51021;DHT22;38907;45.562;8.856;2022-07-29T21:27:51;22.60;99.90
51021;DHT22;38907;45.562;8.856;2022-07-29T21:33:11;22.50;99.90
51021;DHT22;38907;45.562;8.856;2022-07-29T21:38:13;22.40;99.90
51021;DHT22;38907;45.562;8.856;2022-07-29T21:43:20;22.30;99.90
51021;DHT22;38907;45.562;8.856;2022-07-29T21:48:24;22.30;99.90
51021;DHT22;38907;45.562;8.856;2022-07-29T21:53:26;22.30;99.90
51021;DHT22;38907;45.562;8.856;2022-07-29T21:58:30;22.30;99.90
51021;DHT22;38907;45.562;8.856;2022-07-29T22:03:33;22.30;99.90
51021;DHT22;38907;45.562;8.856;2022-07-29T22:08:35;22.30;99.90
51021;DHT22;38907;45.562;8.856;2022-07-29T22:13:41;22.40;99.90
51021;DHT22;38907;45.562;8.856;2022-07-29T22:18:44;22.20;99.90
51021;DHT22;38907;45.562;8.856;2022-07-29T22:23:48;22.20;99.90
51021;DHT22;38907;45.562;8.856;2022-07-29T22:28:51;22.20;99.90
51021;DHT22;38907;45.562;8.856;2022-07-29T22:33:54;22.20;99.90
51021;DHT22;38907;45.562;8.856;2022-07-29T22:38:56;22.00;99.90
51021;DHT22;38907;45.562;8.856;2022-07-29T22:44:00;22.10;99.90
51021;DHT22;38907;45.562;8.856;2022-07-29T22:49:04;21.90;99.90
51021;DHT22;38907;45.562;8.856;2022-07-29T22:54:07;22.00;99.90
51021;DHT22;38907;45.562;8.856;2022-07-29T22:59:11;22.00;99.90
51021;DHT22;38907;45.562;8.856;2022-07-29T23:04:13;21.90;99.90
51021;DHT22;38907;45.562;8.856;2022-07-29T23:09:16;21.80;99.90
51021;DHT22;38907;45.562;8.856;2022-07-29T23:14:20;21.70;99.90
51021;DHT22;38907;45.562;8.856;2022-07-29T23:19:23;21.70;99.90
51021;DHT22;38907;45.562;8.856;2022-07-29T23:24:25;21.80;99.90
51021;DHT22;38907;45.562;8.856;2022-07-29T23:29:29;21.60;99.90
51021;DHT22;38907;45.562;8.856;2022-07-29T23:34:32;21.60;99.90
51021;DHT22;38907;45.562;8.856;2022-07-29T23:39:35;21.70;99.90
51021;DHT22;38907;45.562;8.856;2022-07-29T23:44:40;21.80;99.90
51021;DHT22;38907;45.562;8.856;2022-07-29T23:49:43;21.60;99.90
51021;DHT22;38907;45.562;8.856;2022-07-29T23:54:46;21.60;99.90
51021;DHT22;38907;45.562;8.856;2022-07-29T23:59:50;21.60;99.90
